createdAt,value
2019-04-06T00:00:24.394Z,22.13
2019-04-06T00:02:53.810Z,21.40
2019-04-06T00:05:23.206Z,22.77
2019-04-06T00:07:52.541Z,23.02
2019-04-06T00:10:21.882Z,21.62
2019-04-06T00:12:51.534Z,22.70
2019-04-06T00:15:20.881Z,20.72
2019-04-06T00:17:50.216Z,21.87
2019-04-06T00:20:19.583Z,21.85
2019-04-06T00:22:48.985Z,22.10
2019-04-06T00:25:18.410Z,20.68
2019-04-06T00:27:47.736Z,20.77
2019-04-06T00:30:18.102Z,20.80
2019-04-06T00:32:49.086Z,20.90
2019-04-06T00:35:18.422Z,20.82
2019-04-06T00:37:47.822Z,21.27
2019-04-06T00:40:17.305Z,21.30
2019-04-06T00:42:47.634Z,22.13
2019-04-06T00:45:17.004Z,21.10
2019-04-06T00:47:46.335Z,21.02
2019-04-06T00:50:15.918Z,20.88
2019-04-06T00:52:45.242Z,22.52
2019-04-06T00:55:14.653Z,20.75
2019-04-06T00:57:43.993Z,20.10
2019-04-06T01:00:14.064Z,20.17
2019-04-06T01:02:43.538Z,20.82
2019-04-06T01:05:13.121Z,20.62
2019-04-06T01:07:42.451Z,19.85
2019-04-06T01:10:11.938Z,19.42
2019-04-06T01:12:41.294Z,19.85
2019-04-06T01:15:10.970Z,18.60
2019-04-06T01:17:40.373Z,18.90
2019-04-06T01:20:10.140Z,18.92
2019-04-06T01:22:39.478Z,18.90
2019-04-06T01:25:09.327Z,21.15
2019-04-06T01:27:38.653Z,18.42
2019-04-06T01:30:09.043Z,18.50
2019-04-06T01:32:38.433Z,18.57
2019-04-06T01:35:07.786Z,19.57
2019-04-06T01:37:37.102Z,17.87
2019-04-06T01:40:07.117Z,19.25
2019-04-06T01:42:36.502Z,18.10
2019-04-06T01:45:07.285Z,18.62
2019-04-06T01:47:36.610Z,18.10
2019-04-06T01:50:06.085Z,20.20
2019-04-06T01:52:35.497Z,18.90
2019-04-06T01:55:05.779Z,18.42
2019-04-06T01:57:35.106Z,18.75
2019-04-06T02:00:08.359Z,19.42
2019-04-06T02:02:39.364Z,18.75
2019-04-06T02:05:09.055Z,18.62
2019-04-06T02:07:38.778Z,19.35
2019-04-06T02:10:08.299Z,18.10
2019-04-06T02:12:37.720Z,18.55
2019-04-06T02:15:07.277Z,16.12
2019-04-06T02:17:36.594Z,17.37
2019-04-06T02:20:06.406Z,17.80
2019-04-06T02:22:36.701Z,17.48
2019-04-06T02:25:07.512Z,17.17
2019-04-06T02:27:36.913Z,15.85
2019-04-06T02:30:12.469Z,17.00
2019-04-06T02:32:43.493Z,16.42
2019-04-06T02:35:20.280Z,16.80
2019-04-06T02:37:54.330Z,16.15
2019-04-06T02:40:28.004Z,16.37
2019-04-06T02:43:05.088Z,15.72
2019-04-06T02:45:34.550Z,16.95
2019-04-06T02:48:03.937Z,16.75
2019-04-06T02:50:33.299Z,17.25
2019-04-06T02:53:02.627Z,16.87
2019-04-06T02:55:31.943Z,17.73
2019-04-06T02:58:01.296Z,16.70
2019-04-06T03:00:30.836Z,16.97
2019-04-06T03:03:00.320Z,17.27
2019-04-06T03:05:29.709Z,16.35
2019-04-06T03:07:59.178Z,16.90
2019-04-06T03:10:28.541Z,17.15
2019-04-06T03:12:57.936Z,17.75
2019-04-06T03:15:27.282Z,18.37
2019-04-06T03:17:56.746Z,16.87
2019-04-06T03:20:26.123Z,18.25
2019-04-06T03:22:55.471Z,17.05
2019-04-06T03:25:24.797Z,18.02
2019-04-06T03:27:54.143Z,17.52
2019-04-06T03:30:23.535Z,17.20
2019-04-06T03:32:52.880Z,17.27
2019-04-06T03:35:22.309Z,16.55
2019-04-06T03:37:51.766Z,17.12
2019-04-06T03:40:21.145Z,17.85
2019-04-06T03:42:50.497Z,18.67
2019-04-06T03:45:19.831Z,18.55
2019-04-06T03:47:49.333Z,18.45
2019-04-06T03:50:19.046Z,19.77
2019-04-06T03:52:48.536Z,17.40
2019-04-06T03:55:17.919Z,18.55
2019-04-06T03:57:47.468Z,18.05
2019-04-06T04:00:18.424Z,17.17
2019-04-06T04:02:47.886Z,18.90
2019-04-06T04:05:17.211Z,18.55
2019-04-06T04:07:46.582Z,16.48
2019-04-06T04:10:27.727Z,17.98
2019-04-06T04:12:57.184Z,17.25
2019-04-06T04:15:26.510Z,18.12
2019-04-06T04:17:55.941Z,17.02
2019-04-06T04:20:25.339Z,16.42
2019-04-06T04:22:54.746Z,17.23
2019-04-06T04:25:24.127Z,17.90
2019-04-06T04:27:54.127Z,16.55
2019-04-06T04:30:32.515Z,18.17
2019-04-06T04:32:54.749Z,18.77
2019-04-06T04:35:24.083Z,18.98
2019-04-06T04:37:53.556Z,16.55
2019-04-06T04:40:22.946Z,16.10
2019-04-06T04:42:52.583Z,19.27
2019-04-06T04:45:21.968Z,21.00
2019-04-06T04:47:51.317Z,20.30
2019-04-06T04:50:21.717Z,20.57
2019-04-06T04:52:51.119Z,20.88
2019-04-06T04:55:20.446Z,21.57
2019-04-06T04:57:49.784Z,22.02
2019-04-06T05:00:19.369Z,22.35
2019-04-06T05:02:48.706Z,22.17
2019-04-06T05:05:18.064Z,21.80
2019-04-06T05:07:47.375Z,22.20
2019-04-06T05:10:16.730Z,20.15
2019-04-06T05:12:46.034Z,20.08
2019-04-06T05:15:21.097Z,19.15
2019-04-06T05:17:50.479Z,19.95
2019-04-06T05:20:19.839Z,20.65
2019-04-06T05:22:49.350Z,20.70
2019-04-06T05:25:18.685Z,20.37
2019-04-06T05:27:52.681Z,20.37
2019-04-06T05:30:19.135Z,21.05
2019-04-06T05:32:48.459Z,20.23
2019-04-06T05:35:17.797Z,19.62
2019-04-06T05:37:47.126Z,21.52
2019-04-06T05:40:16.467Z,21.12
2019-04-06T05:42:45.786Z,21.15
2019-04-06T05:45:15.134Z,19.45
2019-04-06T05:47:44.547Z,20.17
2019-04-06T05:50:14.193Z,20.02
2019-04-06T05:52:43.615Z,20.80
2019-04-06T05:55:13.027Z,21.00
2019-04-06T05:57:42.350Z,21.87
2019-04-06T06:00:12.058Z,21.00
2019-04-06T06:02:41.867Z,21.60
2019-04-06T06:05:12.495Z,20.05
2019-04-06T06:07:41.810Z,19.85
2019-04-06T06:10:11.227Z,21.27
2019-04-06T06:12:40.626Z,22.07
2019-04-06T06:15:10.211Z,21.60
2019-04-06T06:17:39.609Z,21.52
2019-04-06T06:20:09.694Z,22.42
2019-04-06T06:22:39.143Z,22.30
2019-04-06T06:25:09.241Z,21.77
2019-04-06T06:27:38.569Z,21.37
2019-04-06T06:30:08.443Z,22.07
2019-04-06T06:32:37.861Z,20.20
2019-04-06T06:35:07.658Z,20.45
2019-04-06T06:37:37.207Z,20.52
2019-04-06T06:40:07.976Z,21.25
2019-04-06T06:42:37.309Z,22.42
2019-04-06T06:45:07.015Z,20.60
2019-04-06T06:47:36.407Z,20.32
2019-04-06T06:50:07.297Z,22.13
2019-04-06T06:52:36.634Z,22.85
2019-04-06T06:55:06.233Z,22.13
2019-04-06T06:57:35.632Z,22.15
2019-04-06T07:00:06.607Z,20.92
2019-04-06T07:02:35.934Z,22.02
2019-04-06T07:05:06.402Z,20.88
2019-04-06T07:07:35.752Z,20.12
2019-04-06T07:10:07.005Z,20.75
2019-04-06T07:12:37.398Z,20.08
2019-04-06T07:15:08.351Z,20.35
2019-04-06T07:17:37.828Z,19.45
2019-04-06T07:20:08.191Z,19.98
2019-04-06T07:22:37.590Z,19.07
2019-04-06T07:25:07.499Z,19.48
2019-04-06T07:27:36.908Z,20.43
2019-04-06T07:30:07.781Z,19.35
2019-04-06T07:32:37.138Z,19.00
2019-04-06T07:35:06.726Z,20.35
2019-04-06T07:37:36.074Z,19.80
2019-04-06T07:40:08.934Z,21.82
2019-04-06T07:42:38.276Z,21.55
2019-04-06T07:45:08.166Z,20.55
2019-04-06T07:47:37.563Z,20.95
2019-04-06T07:50:08.091Z,21.25
2019-04-06T07:52:38.505Z,20.12
2019-04-06T07:55:08.064Z,21.02
2019-04-06T07:57:37.434Z,20.48
2019-04-06T08:00:07.804Z,21.40
2019-04-06T08:02:37.168Z,21.07
2019-04-06T08:05:07.657Z,20.08
2019-04-06T08:07:37.070Z,20.12
2019-04-06T08:10:06.847Z,19.87
2019-04-06T08:12:36.185Z,19.48
2019-04-06T08:15:07.979Z,19.20
2019-04-06T08:17:37.582Z,19.80
2019-04-06T08:20:09.675Z,18.62
2019-04-06T08:22:39.240Z,19.07
2019-04-06T08:25:09.084Z,18.10
2019-04-06T08:27:38.504Z,18.65
2019-04-06T08:30:09.477Z,18.32
2019-04-06T08:32:38.929Z,18.23
2019-04-06T08:35:08.850Z,17.77
2019-04-06T08:37:38.267Z,18.15
2019-04-06T08:40:07.787Z,18.45
2019-04-06T08:42:37.147Z,17.73
2019-04-06T08:45:06.909Z,18.30
2019-04-06T08:47:36.255Z,17.52
2019-04-06T08:50:09.681Z,17.87
2019-04-06T08:52:39.046Z,17.73
2019-04-06T08:55:08.545Z,17.55
2019-04-06T08:57:37.953Z,16.10
2019-04-06T09:00:07.939Z,17.48
2019-04-06T09:02:37.286Z,19.15
2019-04-06T09:05:09.593Z,19.92
2019-04-06T09:07:40.784Z,19.37
2019-04-06T09:10:10.030Z,19.23
2019-04-06T09:12:39.433Z,19.45
2019-04-06T09:15:09.993Z,19.60
2019-04-06T09:17:39.502Z,19.23
2019-04-06T09:20:10.106Z,18.25
2019-04-06T09:22:39.526Z,19.35
2019-04-06T09:25:09.125Z,18.25
2019-04-06T09:27:38.670Z,19.02
2019-04-06T09:30:08.671Z,18.35
2019-04-06T09:32:38.073Z,19.57
2019-04-06T09:35:07.650Z,19.92
2019-04-06T09:37:36.998Z,18.70
2019-04-06T09:40:07.762Z,19.62
2019-04-06T09:42:37.131Z,19.87
2019-04-06T09:45:24.385Z,19.20
2019-04-06T09:47:55.445Z,19.32
2019-04-06T09:50:34.932Z,19.77
2019-04-06T09:53:22.474Z,18.45
2019-04-06T09:56:08.452Z,19.00
2019-04-06T09:58:45.366Z,19.60
2019-04-06T10:01:38.933Z,18.30
2019-04-06T10:04:17.677Z,17.87
2019-04-06T10:06:48.718Z,19.12
2019-04-06T10:09:36.157Z,19.40
2019-04-06T10:12:07.131Z,17.73
2019-04-06T10:14:44.260Z,18.42
2019-04-06T10:17:17.695Z,18.25
2019-04-06T10:19:57.676Z,18.15
2019-04-06T10:22:28.672Z,18.65
2019-04-06T10:25:10.994Z,18.73
2019-04-06T10:27:50.462Z,19.62
2019-04-06T10:30:34.941Z,18.45
2019-04-06T10:33:08.878Z,18.77
2019-04-06T10:35:48.653Z,18.50
2019-04-06T10:38:19.634Z,18.15
2019-04-06T10:41:02.547Z,19.17
2019-04-06T10:43:51.557Z,19.50
2019-04-06T10:46:40.789Z,19.60
2019-04-06T10:49:14.605Z,19.45
2019-04-06T10:51:48.741Z,19.80
2019-04-06T10:54:31.782Z,18.90
2019-04-06T10:57:09.829Z,21.30
2019-04-06T11:00:00.232Z,20.60
2019-04-06T11:02:38.290Z,20.60
2019-04-06T11:05:18.472Z,21.85
2019-04-06T11:07:49.433Z,19.62
2019-04-06T11:10:32.952Z,21.65
2019-04-06T11:13:12.881Z,22.00
2019-04-06T11:15:59.141Z,21.40
2019-04-06T11:18:46.524Z,22.48
2019-04-06T11:21:33.625Z,21.02
2019-04-06T11:24:04.741Z,21.62
2019-04-06T11:26:38.526Z,21.97
2019-04-06T11:29:09.553Z,21.85
2019-04-06T11:31:43.688Z,22.48
2019-04-06T11:34:32.979Z,21.55
2019-04-06T11:37:20.364Z,21.62
2019-04-06T11:39:51.343Z,22.32
2019-04-06T11:42:22.322Z,20.82
2019-04-06T11:45:10.710Z,20.90
2019-04-06T11:47:57.878Z,22.27
2019-04-06T11:50:34.596Z,19.92
2019-04-06T11:53:14.910Z,21.35
2019-04-06T11:56:00.994Z,19.75
2019-04-06T11:58:44.126Z,20.48
2019-04-06T12:01:17.849Z,22.55
2019-04-06T12:04:05.286Z,22.45
2019-04-06T12:06:38.774Z,19.42
2019-04-06T12:09:09.806Z,21.82
2019-04-06T12:11:47.293Z,20.37
2019-04-06T12:14:21.149Z,20.20
2019-04-06T12:17:01.224Z,19.70
2019-04-06T12:19:48.799Z,19.20
2019-04-06T12:22:19.773Z,17.15
2019-04-06T12:24:50.758Z,16.32
2019-04-06T12:27:38.432Z,16.10
2019-04-06T12:30:36.622Z,16.95
2019-04-06T12:32:57.972Z,16.12
2019-04-06T12:35:44.226Z,15.18
2019-04-06T12:38:28.088Z,15.93
2019-04-06T12:40:59.058Z,14.85
2019-04-06T12:43:44.792Z,14.45
2019-04-06T12:46:30.776Z,13.72
2019-04-06T12:49:02.135Z,13.68
2019-04-06T12:51:39.555Z,13.80
2019-04-06T12:54:22.235Z,13.90
2019-04-06T12:57:11.320Z,14.18
2019-04-06T12:59:58.943Z,13.60
2019-04-06T13:02:30.025Z,13.62
2019-04-06T13:05:01.049Z,15.35
2019-04-06T13:07:48.340Z,13.80
2019-04-06T13:10:28.151Z,13.95
2019-04-06T13:13:07.899Z,14.05
2019-04-06T13:15:41.612Z,14.25
2019-04-06T13:18:15.498Z,14.17
2019-04-06T13:20:46.486Z,13.28
2019-04-06T13:23:20.403Z,11.93
2019-04-06T13:25:57.552Z,12.95
2019-04-06T13:28:37.661Z,11.35
2019-04-06T13:31:26.954Z,11.48
2019-04-06T13:33:57.917Z,14.23
2019-04-06T13:36:40.793Z,12.63
2019-04-06T13:39:31.132Z,12.97
2019-04-06T13:42:02.316Z,11.12
2019-04-06T13:44:42.362Z,12.60
2019-04-06T13:47:16.322Z,13.08
2019-04-06T13:49:53.249Z,12.63
2019-04-06T13:52:33.559Z,12.45
2019-04-06T13:55:04.541Z,12.95
2019-04-06T13:57:44.422Z,12.73
2019-04-06T14:00:15.551Z,12.68
2019-04-06T14:03:03.079Z,13.72
2019-04-06T14:05:45.822Z,13.05
2019-04-06T14:08:16.817Z,13.10
2019-04-06T14:10:50.721Z,13.08
2019-04-06T14:13:24.529Z,12.43
2019-04-06T14:16:13.853Z,12.47
2019-04-06T14:19:00.955Z,12.98
2019-04-06T14:21:35.853Z,13.30
2019-04-06T14:24:25.239Z,14.65
2019-04-06T14:26:56.209Z,13.58
2019-04-06T14:29:43.907Z,12.90
2019-04-06T14:32:17.424Z,13.80
2019-04-06T14:34:48.413Z,13.85
2019-04-06T14:37:19.447Z,14.60
2019-04-06T14:40:06.694Z,12.63
2019-04-06T14:42:37.674Z,14.98
2019-04-06T14:45:15.025Z,14.18
2019-04-06T14:47:46.006Z,14.03
2019-04-06T14:50:23.134Z,14.33
2019-04-06T14:53:10.522Z,15.30
2019-04-06T14:55:50.555Z,15.75
2019-04-06T14:58:21.639Z,14.85
2019-04-06T15:01:07.599Z,14.03
2019-04-06T15:03:38.607Z,14.53
2019-04-06T15:06:15.398Z,14.90
2019-04-06T15:14:52.018Z,14.28
2019-04-06T15:17:40.104Z,15.05
2019-04-06T15:20:17.466Z,14.65
2019-04-06T15:22:51.267Z,13.05
2019-04-06T15:25:40.390Z,14.50
2019-04-06T15:28:11.762Z,13.68
2019-04-06T15:30:58.135Z,13.43
2019-04-06T15:33:45.877Z,14.70
2019-04-06T15:36:22.785Z,14.93
2019-04-06T15:39:08.838Z,14.23
2019-04-06T15:41:55.367Z,13.93
2019-04-06T15:44:36.867Z,14.73
2019-04-06T15:47:07.974Z,13.93
2019-04-06T15:49:41.781Z,13.30
2019-04-06T15:52:25.066Z,14.47
2019-04-06T15:54:56.107Z,13.55
2019-04-06T15:57:33.264Z,14.68
2019-04-06T16:00:07.937Z,15.38
2019-04-06T16:02:38.989Z,13.75
2019-04-06T16:05:10.059Z,13.78
2019-04-06T16:07:51.508Z,13.58
2019-04-06T16:10:37.758Z,14.33
2019-04-06T16:13:14.500Z,13.85
2019-04-06T16:15:51.167Z,14.13
2019-04-06T16:18:25.036Z,14.10
2019-04-06T16:20:58.288Z,14.43
2019-04-06T16:23:34.732Z,13.22
2019-04-06T16:26:12.917Z,14.45
2019-04-06T16:28:43.877Z,13.05
2019-04-06T16:31:32.744Z,12.75
2019-04-06T16:34:19.967Z,12.55
2019-04-06T16:36:59.894Z,13.83
2019-04-06T16:39:47.500Z,13.25
2019-04-06T16:42:21.711Z,12.55
2019-04-06T16:44:52.782Z,12.28
2019-04-06T16:47:23.738Z,12.93
2019-04-06T16:49:54.812Z,13.35
2019-04-06T16:52:28.729Z,12.85
2019-04-06T16:55:16.074Z,12.93
2019-04-06T16:57:50.010Z,11.97
2019-04-06T17:00:29.752Z,11.35
2019-04-06T17:03:16.908Z,12.33
2019-04-06T17:06:04.197Z,11.25
2019-04-06T17:08:41.302Z,11.75
2019-04-06T17:11:28.972Z,10.15
2019-04-06T17:14:15.209Z,9.90
2019-04-06T17:16:52.166Z,9.73
2019-04-06T17:19:23.156Z,9.20
2019-04-06T17:21:56.998Z,9.18
2019-04-06T17:24:33.997Z,8.93
2019-04-06T17:27:10.801Z,8.73
2019-04-06T17:29:58.477Z,8.00
2019-04-06T17:32:36.871Z,8.70
2019-04-06T17:35:05.997Z,8.38
2019-04-06T17:37:36.981Z,8.80
2019-04-06T17:40:14.405Z,7.85
2019-04-06T17:42:45.848Z,8.45
2019-04-06T17:45:19.668Z,8.23
2019-04-06T17:47:59.998Z,7.72
2019-04-06T17:50:31.142Z,7.20
2019-04-06T17:53:08.238Z,7.17
2019-04-06T17:55:55.382Z,7.40
2019-04-06T17:58:26.958Z,6.72
2019-04-06T18:01:00.900Z,7.15
2019-04-06T18:03:40.845Z,6.47
2019-04-06T18:06:11.891Z,6.00
2019-04-06T18:08:46.291Z,7.00
2019-04-06T18:11:20.537Z,5.92
2019-04-06T18:13:49.958Z,6.10
2019-04-06T18:16:22.109Z,6.22
2019-04-06T18:18:51.447Z,5.72
2019-04-06T18:21:20.761Z,6.53
2019-04-06T18:23:50.608Z,6.05
2019-04-06T18:26:20.025Z,6.72
2019-04-06T18:28:49.374Z,5.90
2019-04-06T18:31:29.422Z,6.10
2019-04-06T18:33:59.155Z,6.00
2019-04-06T18:36:39.947Z,6.15
2019-04-06T18:39:15.249Z,9.10
2019-04-06T18:41:44.626Z,7.50
2019-04-06T18:44:13.994Z,7.20
2019-04-06T18:46:43.760Z,7.47
2019-04-06T18:49:14.534Z,7.00
2019-04-06T18:51:43.874Z,7.00
2019-04-06T18:54:13.216Z,7.17
2019-04-06T18:56:42.547Z,7.45
2019-04-06T18:59:12.315Z,7.03
2019-04-06T19:01:41.634Z,6.70
2019-04-06T19:04:10.978Z,6.83
2019-04-06T19:06:40.307Z,7.17
2019-04-06T19:09:20.640Z,7.20
2019-04-06T19:11:44.470Z,6.95
2019-04-06T19:14:12.372Z,6.83
2019-04-06T19:16:42.155Z,6.75
2019-04-06T19:19:11.697Z,6.92
2019-04-06T19:21:42.550Z,6.92
2019-04-06T19:24:12.221Z,6.97
2019-04-06T19:26:41.533Z,6.55
2019-04-06T19:29:10.938Z,9.08
2019-04-06T19:31:41.346Z,8.40
2019-04-06T19:34:10.686Z,8.35
2019-04-06T19:36:40.008Z,7.45
2019-04-06T19:39:12.424Z,8.05
2019-04-06T19:41:41.882Z,10.90
2019-04-06T19:44:11.358Z,11.25
2019-04-06T19:46:40.742Z,8.88
2019-04-06T19:49:10.089Z,10.95
2019-04-06T19:51:40.751Z,11.22
2019-04-06T19:54:10.767Z,11.05
2019-04-06T19:56:40.185Z,12.65
2019-04-06T19:59:09.825Z,11.78
2019-04-06T20:01:39.253Z,11.22
2019-04-06T20:04:08.617Z,10.43
2019-04-06T20:06:38.010Z,10.45
2019-04-06T20:09:08.583Z,10.78
2019-04-06T20:11:38.191Z,10.30
2019-04-06T20:14:07.649Z,9.68
2019-04-06T20:16:37.276Z,13.55
2019-04-06T20:19:06.927Z,11.50
2019-04-06T20:21:36.406Z,11.20
2019-04-06T20:24:06.271Z,16.32
2019-04-06T20:26:36.051Z,11.55
2019-04-06T20:29:06.331Z,10.78
2019-04-06T20:31:36.233Z,11.50
2019-04-06T20:34:06.229Z,11.10
2019-04-06T20:36:35.653Z,13.03
2019-04-06T20:39:07.700Z,13.78
2019-04-06T20:41:38.136Z,14.53
2019-04-06T20:44:07.706Z,13.85
2019-04-06T20:46:37.561Z,13.83
2019-04-06T20:49:07.625Z,13.50
2019-04-06T20:51:37.171Z,13.85
2019-04-06T20:54:06.516Z,14.03
2019-04-06T20:56:36.181Z,12.13
2019-04-06T20:59:05.795Z,11.43
2019-04-06T21:01:35.278Z,11.78
2019-04-06T21:04:04.751Z,10.82
2019-04-06T21:06:34.811Z,10.88
2019-04-06T21:09:08.730Z,12.15
2019-04-06T21:11:38.270Z,11.12
2019-04-06T21:14:07.919Z,11.78
2019-04-06T21:16:37.878Z,12.82
2019-04-06T21:19:07.296Z,12.85
2019-04-06T21:21:36.880Z,13.98
2019-04-06T21:24:06.793Z,14.70
2019-04-06T21:26:36.847Z,13.65
2019-04-06T21:29:06.406Z,14.95
2019-04-06T21:31:36.267Z,14.20
2019-04-06T21:34:12.112Z,15.08
2019-04-06T21:36:37.032Z,14.23
2019-04-06T21:39:07.711Z,16.07
2019-04-06T21:41:37.431Z,15.48
2019-04-06T21:44:06.825Z,15.28
2019-04-06T21:46:36.167Z,14.40
2019-04-06T21:49:06.085Z,14.83
2019-04-06T21:51:35.622Z,15.50
2019-04-06T21:54:05.115Z,15.08
2019-04-06T21:56:34.452Z,14.58
2019-04-06T21:59:03.781Z,14.28
2019-04-06T22:01:33.439Z,14.73
2019-04-06T22:04:03.155Z,14.93
2019-04-06T22:06:32.633Z,15.15
2019-04-06T22:09:02.705Z,15.25
2019-04-06T22:11:34.135Z,14.10
2019-04-06T22:14:04.401Z,13.70
2019-04-06T22:16:33.801Z,13.62
2019-04-06T22:19:03.131Z,12.47
2019-04-06T22:21:32.470Z,12.10
2019-04-06T22:24:02.933Z,12.23
2019-04-06T22:26:32.852Z,11.85
2019-04-06T22:29:02.683Z,12.65
2019-04-06T22:31:32.337Z,12.50
2019-04-06T22:34:01.742Z,13.25
2019-04-06T22:36:31.088Z,14.05
2019-04-06T22:39:00.689Z,14.40
2019-04-06T22:41:31.757Z,15.38
2019-04-06T22:44:01.091Z,15.15
2019-04-06T22:46:30.433Z,14.03
2019-04-06T22:49:00.150Z,14.03
2019-04-06T22:51:29.979Z,14.68
2019-04-06T22:53:59.470Z,14.60
2019-04-06T22:56:29.360Z,15.35
2019-04-06T22:58:58.813Z,14.33
2019-04-06T23:01:29.804Z,14.70
2019-04-06T23:04:19.327Z,14.58
2019-04-06T23:06:50.431Z,15.50
2019-04-06T23:09:20.223Z,15.10
2019-04-06T23:11:50.396Z,14.15
2019-04-06T23:14:20.794Z,14.05
2019-04-06T23:16:50.302Z,14.03
2019-04-06T23:19:20.225Z,13.65
2019-04-06T23:21:49.804Z,14.35
2019-04-06T23:24:19.357Z,13.22
2019-04-06T23:26:48.851Z,12.90
2019-04-06T23:29:18.186Z,12.53
2019-04-06T23:31:47.527Z,11.38
2019-04-06T23:34:16.854Z,12.65
2019-04-06T23:36:46.350Z,12.75
2019-04-06T23:39:16.139Z,12.80
2019-04-06T23:41:45.514Z,12.07
2019-04-06T23:44:14.843Z,12.23
2019-04-06T23:46:44.186Z,10.78
2019-04-06T23:49:14.487Z,11.40
2019-04-06T23:51:43.850Z,12.03
2019-04-06T23:54:13.549Z,11.40
2019-04-06T23:56:42.999Z,11.45
2019-04-06T23:59:12.342Z,10.88
